Latest Coastal Weather Observations for Holmes Reef

IDQ60701

Issued at 7:32 pm EST Monday 22 April 2024 (issued every 10 minutes, with the page automatically refreshed every 10 minutes)

About coastal observations | Map of coastal stations | Coastal observations for QLD | Marine services | Other Formats
Station Details ID: 200732 Name: HOLMES REEF Lat: -16.47 Lon: 147.87 Height: 1.9 m
Data from the previous 72 hours. | See also: Recent months at Holmes Reef
Date/Time
EST
Wind Sea
Height
m
Swell Vis
km
Cloud Weather Temp
°C
Press
MSL
hPa
Rain since
9am
mm
Dir  Spd
kts
Gust
kts
Height
m
Period
s
Dir
22/07:30pm SSE 21 25 - - - - - - - 27.3 1012.3 -
22/07:00pm SSE 21 24 - - - - - - - 27.4 1011.9 -
22/06:30pm SSE 21 25 - - - - - - - 27.5 1011.4 -
22/06:00pm SSE 19 23 - - - - - - - 27.6 1011.2 -
22/05:30pm SSE 22 24 - - - - - - - 27.5 1011.2 -
22/05:00pm SSE 22 25 - - - - - - - 27.6 1011.0 -
22/04:30pm SSE 21 24 - - - - - - - 27.6 1010.9 -
22/04:00pm SSE 22 25 - - - - - - - 27.5 1010.7 -
22/03:30pm SSE 21 24 - - - - - - - 27.8 1010.6 -
22/03:00pm SSE 22 25 - - - - - - - 27.7 1010.5 -
22/02:30pm SSE 20 23 - - - - - - - 27.6 1010.8 -
22/02:00pm SSE 21 24 - - - - - - - 27.4 1010.8 -
22/01:30pm SSE 22 25 - - - - - - - 27.5 1011.0 -
22/01:00pm SSE 23 26 - - - - - - - 27.3 1011.0 -
22/12:30pm SSE 23 26 - - - - - - - 27.6 1011.3 -
22/12:00pm SSE 23 27 - - - - - - - 27.6 1011.7 -
22/11:30am SSE 24 28 - - - - - - - 27.4 1011.7 -
22/11:00am SSE 23 27 - - - - - - - 27.2 1012.0 -
22/10:30am SSE 24 27 - - - - - - - 27.2 1012.4 -
22/10:00am SE 24 28 - - - - - - - 27.2 1012.6 -
22/09:30am SSE 25 29 - - - - - - - 27.3 1012.6 -
22/09:00am SSE 25 29 - - - - - - - 27.3 1012.3 -
22/08:30am SE 22 26 - - - - - - - 27.4 1012.6 -
22/08:00am SSE 24 27 - - - - - - - 27.3 1012.5 -
22/07:30am SSE 25 29 - - - - - - - 27.1 1012.0 -
22/07:00am SSE 25 29 - - - - - - - 27.0 1011.7 -
22/06:30am SSE 24 27 - - - - - - - 26.9 1011.3 -
22/06:00am SSE 25 28 - - - - - - - 27.0 1011.0 -
22/05:30am SSE 24 28 - - - - - - - 27.1 1010.9 -
22/05:00am SSE 24 28 - - - - - - - 26.9 1010.7 -
22/04:30am SSE 25 28 - - - - - - - 26.7 1010.2 -
22/04:00am SSE 24 29 - - - - - - - 27.0 1010.0 -
22/03:30am SE 25 29 - - - - - - - 26.8 1010.2 -
22/03:00am SSE 24 27 - - - - - - - 27.0 1010.1 -
22/02:30am SSE 25 29 - - - - - - - 27.0 1010.2 -
22/02:00am SSE 24 27 - - - - - - - 27.1 1010.3 -
22/01:30am SSE 23 27 - - - - - - - 27.3 1010.6 -
22/01:00am SSE 24 27 - - - - - - - 27.5 1011.0 -
22/12:30am SSE 23 27 - - - - - - - 27.4 1011.4 -
22/12:00am SSE 25 29 - - - - - - - 27.2 1011.6 -
 
Date/Time
EST
Wind Sea
Height
m
Swell Vis
km
Cloud Weather Temp
°C
Press
MSL
hPa
Rain since
9am
mm
Dir  Spd
kts
Gust
kts
Height
m
Period
s
Dir
21/11:30pm SE 25 29 - - - - - - - 26.6 1011.9 -
21/11:00pm SE 23 27 - - - - - - - 27.3 1012.0 -
21/10:30pm SE 23 27 - - - - - - - 27.3 1012.1 -
21/10:00pm SE 23 26 - - - - - - - 27.2 1012.1 -
21/09:30pm SE 23 26 - - - - - - - 27.0 1012.3 -
21/09:00pm SSE 23 26 - - - - - - - 27.1 1012.3 -
21/08:30pm SE 23 26 - - - - - - - 27.4 1012.0 -
21/08:00pm SE 22 25 - - - - - - - 27.2 1011.7 -
21/07:30pm SE 23 26 - - - - - - - 27.1 1011.3 -
21/07:00pm SE 22 25 - - - - - - - 27.7 1010.9 -
21/06:30pm SSE 22 26 - - - - - - - 27.2 1010.7 -
21/06:00pm SE 20 27 - - - - - - - 26.2 1010.5 -
21/05:30pm SSE 21 26 - - - - - - - 26.3 1010.1 -
21/05:24pm SE 15 26 - - - - - - - 25.9 1010.1 -
21/05:13pm SE 16 19 - - - - - - - 25.4 1010.1 -
21/05:00pm SSE 22 28 - - - - - - - 25.4 1010.0 -
21/04:30pm SE 22 27 - - - - - - - 24.9 1010.0 -
21/04:00pm SSE 22 27 - - - - - - - 26.5 1009.5 -
21/03:30pm SSE 22 26 - - - - - - - 26.4 1009.0 -
21/03:00pm SSE 22 25 - - - - - - - 26.9 1009.0 -
21/02:30pm SE 22 27 - - - - - - - 26.9 1009.1 -
21/02:00pm ESE 22 26 - - - - - - - 26.8 1009.2 -
21/01:30pm SE 24 27 - - - - - - - 27.0 1009.2 -
21/01:00pm SE 22 25 - - - - - - - 27.2 1009.5 -
21/12:30pm SE 19 22 - - - - - - - 27.2 1009.9 -
21/12:00pm SSE 13 17 - - - - - - - 28.0 1010.5 -
21/11:30am SSE 13 15 - - - - - - - 28.3 1010.8 -
21/11:00am SSE 14 16 - - - - - - - 28.3 1011.1 -
21/10:30am SSE 13 16 - - - - - - - 27.9 1011.5 -
21/10:00am SSE 13 15 - - - - - - - 28.3 1011.6 -
21/09:30am SE 14 16 - - - - - - - 28.0 1011.5 -
21/09:00am SE 13 15 - - - - - - - 27.9 1011.3 -
21/08:30am SE 14 17 - - - - - - - 27.9 1011.0 -
21/08:00am SE 15 17 - - - - - - - 27.7 1010.9 -
21/07:30am SE 15 17 - - - - - - - 28.0 1010.7 -
21/07:00am SE 15 17 - - - - - - - 27.6 1010.6 -
21/06:30am SSE 15 17 - - - - - - - 27.3 1010.2 -
21/06:00am SE 14 16 - - - - - - - 27.6 1010.0 -
21/05:30am SE 14 15 - - - - - - - 27.3 1009.8 -
21/05:00am SE 15 16 - - - - - - - 27.5 1009.7 -
21/04:30am SE 13 16 - - - - - - - 27.5 1009.7 -
21/04:00am SE 13 15 - - - - - - - 27.6 1009.6 -
21/03:30am SE 13 14 - - - - - - - 27.7 1009.6 -
21/03:00am SE 13 15 - - - - - - - 27.5 1009.6 -
21/02:30am SE 13 14 - - - - - - - 27.5 1009.5 -
21/02:00am ESE 13 15 - - - - - - - 27.5 1009.6 -
21/01:30am SE 13 16 - - - - - - - 27.7 1009.8 -
21/01:00am SE 13 14 - - - - - - - 27.6 1010.2 -
21/12:30am SE 13 15 - - - - - - - 27.6 1010.6 -
21/12:00am SE 11 13 - - - - - - - 27.9 1011.0 -
 
Date/Time
EST
Wind Sea
Height
m
Swell Vis
km
Cloud Weather Temp
°C
Press
MSL
hPa
Rain since
9am
mm
Dir  Spd
kts
Gust
kts
Height
m
Period
s
Dir
20/11:30pm SE 10 12 - - - - - - - 27.9 1011.3 -
20/11:00pm SE 10 12 - - - - - - - 27.8 1011.3 -
20/10:30pm SE 11 13 - - - - - - - 27.9 1011.5 -
20/10:00pm SE 11 13 - - - - - - - 27.8 1011.6 -
20/09:30pm SE 12 14 - - - - - - - 27.7 1011.7 -
20/09:00pm SSE 12 14 - - - - - - - 28.0 1011.8 -
20/08:30pm SSE 12 13 - - - - - - - 27.8 1011.5 -
20/08:00pm SSE 12 14 - - - - - - - 27.9 1011.2 -
20/07:30pm SSE 13 15 - - - - - - - 27.5 1010.7 -
20/07:00pm SSE 13 15 - - - - - - - 27.7 1010.3 -
20/06:30pm SSE 12 14 - - - - - - - 27.7 1010.1 -
20/06:00pm SSE 11 13 - - - - - - - 27.9 1009.7 -
20/05:30pm SE 11 13 - - - - - - - 27.8 1009.4 -
20/05:00pm SSE 11 13 - - - - - - - 27.9 1009.3 -
20/04:30pm ESE 10 12 - - - - - - - 28.0 1009.2 -
20/04:00pm ESE 9 11 - - - - - - - 28.0 1009.0 -
20/03:30pm ESE 10 11 - - - - - - - 27.9 1008.8 -
20/03:00pm ESE 10 12 - - - - - - - 28.1 1008.7 -
20/02:30pm ESE 10 12 - - - - - - - 27.9 1008.8 -
20/02:00pm ESE 11 12 - - - - - - - 28.2 1009.0 -
20/01:30pm ESE 10 12 - - - - - - - 27.8 1009.3 -
20/01:00pm ESE 12 14 - - - - - - - 27.8 1009.7 -
20/12:30pm E 13 15 - - - - - - - 27.8 1010.2 -
20/12:00pm ESE 14 16 - - - - - - - 27.9 1010.7 -
20/11:30am ESE 15 17 - - - - - - - 28.0 1011.0 -
20/11:00am ESE 14 17 - - - - - - - 27.8 1011.5 -
20/10:30am ESE 15 18 - - - - - - - 27.7 1011.5 -
20/10:00am ESE 15 16 - - - - - - - 27.8 1011.7 -
20/09:30am SE 16 18 - - - - - - - 27.6 1011.6 -
20/09:00am ESE 17 18 - - - - - - - 27.7 1011.5 -
20/08:30am ESE 14 17 - - - - - - - 27.6 1011.4 -
20/08:00am ESE 14 16 - - - - - - - 27.7 1011.5 -
20/07:30am ESE 13 15 - - - - - - - 27.8 1011.2 -
20/07:00am ESE 13 15 - - - - - - - 27.6 1010.8 -
20/06:30am ESE 14 15 - - - - - - - 27.4 1010.3 -
20/06:00am ESE 15 17 - - - - - - - 27.3 1009.9 -
20/05:30am ESE 16 19 - - - - - - - 27.3 1009.7 -
20/05:00am ESE 17 20 - - - - - - - 26.7 1009.3 -
20/04:30am ESE 17 19 - - - - - - - 27.1 1009.2 -
20/04:00am ESE 18 20 - - - - - - - 26.9 1009.5 -
20/03:30am ESE 19 22 - - - - - - - 26.5 1009.5 -
20/03:00am ESE 19 21 - - - - - - - 27.1 1009.5 -
20/02:30am ESE 20 23 - - - - - - - 26.7 1009.3 -
20/02:00am SE 20 23 - - - - - - - 26.5 1009.6 -
20/01:30am SE 19 22 - - - - - - - 26.2 1010.0 -
20/01:00am SE 19 22 - - - - - - - 26.5 1010.5 -
20/12:30am SE 19 21 - - - - - - - 26.4 1010.9 -
20/12:00am ESE 18 21 - - - - - - - 26.7 1011.5 -
 
Date/Time
EST
Wind Sea
Height
m
Swell Vis
km
Cloud Weather Temp
°C
Press
MSL
hPa
Rain since
9am
mm
Dir  Spd
kts
Gust
kts
Height
m
Period
s
Dir
19/11:30pm ESE 20 22 - - - - - - - 26.9 1011.5 -
19/11:00pm SE 21 23 - - - - - - - 26.9 1011.4 -
19/10:30pm SE 21 25 - - - - - - - 27.4 1011.4 -
19/10:00pm SE 22 26 - - - - - - - 27.6 1011.0 -
19/09:30pm SE 23 27 - - - - - - - 28.2 1011.1 -
19/09:00pm SE 24 27 - - - - - - - 27.9 1011.0 -
19/08:30pm SE 22 27 - - - - - - - 27.6 1010.9 -
19/08:00pm SE 24 27 - - - - - - - 27.2 1010.7 -

Other formats

Comma delimited format used in spreadsheet applications
http://www.bom.gov.au/fwo/IDQ60701/IDQ60701.94289.axf

JavaScript Object Notation format (JSON) in row-major order
http://www.bom.gov.au/fwo/IDQ60701/IDQ60701.94289.json

Data quality

Most of these data are generated automatically and are frequently updated. Quality checks on data are not normally performed. It is possible for incorrect values to appear. Refer to information at About Latest Weather Observations and please check the disclaimer before using these data.